Time;durP1;ratioP1;P1;durP2;ratioP2;P2;SDS_P1;SDS_P2;PMS_P1;PMS_P2;Temp;Humidity;BMP_temperature;BMP_pressure;BME280_temperature;BME280_humidity;BME280_pressure;Samples;Min_cycle;Max_cycle;Signal;HPM_P1;HPM_P2
2021/03/05 00:00:06;;;;;;;25.57;12.90;;;3.10;87.40;;;;;;5070676;28;20325;-76
2021/03/05 00:02:32;;;;;;;28.80;13.20;;;3.10;87.40;;;;;;5071196;28;20651;-76
2021/03/05 00:04:58;;;;;;;39.63;16.80;;;3.10;87.30;;;;;;5070317;28;20303;-77
2021/03/05 00:07:24;;;;;;;64.90;23.53;;;3.10;87.10;;;;;;5071040;28;20044;-77
2021/03/05 00:09:49;;;;;;;48.17;19.00;;;3.20;87.10;;;;;;5070956;28;20302;-76
2021/03/05 00:12:15;;;;;;;48.53;19.33;;;3.10;86.90;;;;;;5070106;28;20489;-76
2021/03/05 00:14:43;;;;;;;45.17;20.40;;;3.20;87.00;;;;;;5070771;28;20484;-76
2021/03/05 00:17:09;;;;;;;24.40;12.10;;;3.20;86.70;;;;;;5070970;28;20126;-76
2021/03/05 00:19:35;;;;;;;21.70;12.50;;;3.20;86.50;;;;;;5071818;28;20787;-76
2021/03/05 00:22:00;;;;;;;16.90;9.67;;;3.20;86.50;;;;;;5074669;28;20052;-76
2021/03/05 00:24:26;;;;;;;14.50;9.30;;;3.10;86.50;;;;;;5074341;28;20041;-76
2021/03/05 00:26:52;;;;;;;18.47;9.67;;;3.10;86.50;;;;;;5073879;28;20181;-76
2021/03/05 00:29:17;;;;;;;15.97;8.97;;;3.10;86.60;;;;;;5074413;28;20470;-76
2021/03/05 00:31:43;;;;;;;18.77;8.03;;;3.10;86.60;;;;;;5074329;28;20053;-76
2021/03/05 00:34:08;;;;;;;15.27;7.27;;;3.10;86.50;;;;;;5073583;28;20048;-76
2021/03/05 00:36:35;;;;;;;12.17;7.17;;;3.10;86.50;;;;;;5074631;28;20473;-76
2021/03/05 00:39:00;;;;;;;16.47;7.33;;;3.20;86.40;;;;;;5073909;28;20150;-76
2021/03/05 00:41:26;;;;;;;14.13;7.37;;;3.10;86.30;;;;;;5074113;28;20294;-76
2021/03/05 00:43:52;;;;;;;10.73;6.00;;;3.10;86.40;;;;;;5074054;28;20505;-76
2021/03/05 00:46:17;;;;;;;12.80;5.53;;;3.20;86.40;;;;;;5073428;28;20514;-76
2021/03/05 00:48:43;;;;;;;14.53;5.63;;;3.20;86.30;;;;;;5074257;28;20048;-76
2021/03/05 00:51:09;;;;;;;13.13;6.60;;;3.20;86.30;;;;;;5074029;28;20056;-76
2021/03/05 00:53:34;;;;;;;11.93;6.03;;;3.20;86.10;;;;;;5073664;28;20040;-76
2021/03/05 00:56:00;;;;;;;12.87;6.70;;;3.20;85.90;;;;;;5073950;28;20082;-76
2021/03/05 00:58:26;;;;;;;11.93;6.30;;;3.20;85.80;;;;;;5073795;28;20041;-76
2021/03/05 01:00:52;;;;;;;12.47;5.60;;;3.20;85.70;;;;;;5073391;28;20114;-76
2021/03/05 01:03:18;;;;;;;15.83;5.83;;;3.20;85.70;;;;;;5073901;28;20771;-76
2021/03/05 01:05:44;;;;;;;12.67;7.20;;;3.20;85.60;;;;;;5073953;28;20040;-76
2021/03/05 01:08:09;;;;;;;12.03;5.80;;;3.10;85.60;;;;;;5073185;28;20052;-76
2021/03/05 01:10:35;;;;;;;9.80;6.00;;;3.10;85.50;;;;;;5074105;28;20508;-76
2021/03/05 01:13:01;;;;;;;11.53;6.43;;;3.00;85.60;;;;;;5073533;28;20057;-76
2021/03/05 01:15:27;;;;;;;13.37;5.70;;;3.10;85.90;;;;;;5073350;28;20136;-76
2021/03/05 01:17:53;;;;;;;13.53;6.83;;;3.00;85.80;;;;;;5073473;28;20455;-73
2021/03/05 01:20:22;;;;;;;13.90;6.57;;;3.00;85.60;;;;;;5073431;28;20303;-73
2021/03/05 01:22:48;;;;;;;17.37;8.87;;;3.00;85.60;;;;;;5072581;28;20460;-74
2021/03/05 01:25:20;;;;;;;10.60;5.63;;;3.00;85.60;;;;;;5073474;28;20298;-74
2021/03/05 01:27:46;;;;;;;11.30;5.67;;;2.90;85.60;;;;;;5073261;28;20554;-74
2021/03/05 01:30:13;;;;;;;12.63;5.27;;;2.90;85.60;;;;;;5072159;28;20302;-74
2021/03/05 01:32:38;;;;;;;11.57;5.40;;;2.90;85.50;;;;;;5073320;28;20513;-75
2021/03/05 01:35:16;;;;;;;13.00;5.60;;;2.90;85.40;;;;;;5072842;28;20329;-74
2021/03/05 01:37:42;;;;;;;10.57;4.50;;;2.90;85.60;;;;;;5073060;28;20299;-74
2021/03/05 01:40:12;;;;;;;11.37;5.30;;;2.80;85.60;;;;;;5073179;28;20299;-74
2021/03/05 01:42:38;;;;;;;10.97;4.97;;;2.80;85.80;;;;;;5072933;28;20655;-74
2021/03/05 01:45:07;;;;;;;14.53;4.80;;;2.80;85.80;;;;;;5072980;28;20793;-74
2021/03/05 01:47:33;;;;;;;10.87;5.20;;;2.80;85.90;;;;;;5073227;28;20787;-74
2021/03/05 01:49:58;;;;;;;11.53;5.77;;;2.70;85.80;;;;;;5072231;28;20381;-75
2021/03/05 01:52:24;;;;;;;10.80;4.40;;;2.70;85.90;;;;;;5072813;28;20056;-74
2021/03/05 01:54:49;;;;;;;10.33;4.50;;;2.70;86.00;;;;;;5072835;28;20052;-74
2021/03/05 01:57:15;;;;;;;13.77;4.33;;;2.70;86.00;;;;;;5072177;28;20051;-74
2021/03/05 01:59:41;;;;;;;8.73;4.07;;;2.80;86.10;;;;;;5072839;28;20051;-75
2021/03/05 02:02:08;;;;;;;9.13;4.80;;;2.80;86.10;;;;;;5072696;28;20045;-75
2021/03/05 02:04:37;;;;;;;15.63;4.67;;;2.90;86.10;;;;;;5072100;28;20599;-74
2021/03/05 02:07:07;;;;;;;12.57;4.90;;;2.90;86.10;;;;;;5072070;28;20791;-74
2021/03/05 02:09:34;;;;;;;9.47;4.63;;;3.00;86.00;;;;;;5072869;28;20291;-75
2021/03/05 02:12:01;;;;;;;6.93;3.97;;;3.10;85.80;;;;;;5071791;28;20318;-75
2021/03/05 02:14:27;;;;;;;10.97;4.47;;;3.20;85.50;;;;;;5072864;28;20303;-74
2021/03/05 02:17:17;;;;;;;10.63;4.10;;;3.20;85.20;;;;;;5072336;28;20306;-74
2021/03/05 02:20:06;;;;;;;8.90;3.90;;;3.20;85.10;;;;;;5071478;28;20771;-74
2021/03/05 02:23:03;;;;;;;13.07;4.57;;;3.20;84.80;;;;;;5080681;28;20298;-75
2021/03/05 02:25:48;;;;;;;7.60;3.93;;;3.20;84.90;;;;;;5072089;28;20299;-74
2021/03/05 02:28:32;;;;;;;9.17;4.43;;;3.20;84.70;;;;;;5072333;28;20319;-74
2021/03/05 02:31:07;;;;;;;6.83;4.17;;;3.20;84.70;;;;;;5072053;28;20309;-74
2021/03/05 02:34:03;;;;;;;8.17;3.97;;;3.30;84.60;;;;;;5071665;28;20633;-74
2021/03/05 02:36:37;;;;;;;10.20;3.70;;;3.20;84.30;;;;;;5071798;28;20320;-75
2021/03/05 02:39:13;;;;;;;8.57;3.67;;;3.20;84.50;;;;;;5071063;28;20306;-74
2021/03/05 02:41:42;;;;;;;9.73;3.77;;;3.20;84.40;;;;;;5071217;28;20295;-74
2021/03/05 02:44:12;;;;;;;6.07;4.33;;;3.20;84.40;;;;;;5071809;28;20326;-74
2021/03/05 02:46:41;;;;;;;9.90;4.03;;;3.10;84.50;;;;;;5071423;28;20287;-74
2021/03/05 02:49:10;;;;;;;9.63;4.30;;;3.10;84.50;;;;;;5071968;28;20347;-74
2021/03/05 02:51:37;;;;;;;8.90;3.57;;;3.00;84.60;;;;;;5071887;28;20819;-74
2021/03/05 02:54:06;;;;;;;8.50;3.60;;;3.00;84.70;;;;;;5070842;28;20374;-74
2021/03/05 02:56:32;;;;;;;6.43;4.47;;;3.00;84.70;;;;;;5071917;28;20311;-74
2021/03/05 02:58:59;;;;;;;3.33;2.07;;;3.00;84.20;;;;;;5071527;28;20938;-74
2021/03/05 03:01:26;;;;;;;8.73;2.50;;;3.00;83.70;;;;;;5070855;28;20302;-74
2021/03/05 03:03:56;;;;;;;4.73;2.33;;;3.00;83.30;;;;;;5071794;28;20298;-74
2021/03/05 03:06:24;;;;;;;10.67;3.00;;;3.00;83.00;;;;;;5071651;28;20306;-74
2021/03/05 03:08:53;;;;;;;7.77;2.10;;;3.00;82.70;;;;;;5070765;28;20302;-74
2021/03/05 03:11:20;;;;;;;6.43;1.90;;;2.90;82.50;;;;;;5071355;28;20399;-74
2021/03/05 03:13:47;;;;;;;9.73;2.50;;;2.90;82.10;;;;;;5070676;28;20304;-74
2021/03/05 03:16:16;;;;;;;4.53;2.03;;;2.90;82.10;;;;;;5071690;28;20323;-74
2021/03/05 03:18:43;;;;;;;8.13;2.00;;;2.90;81.80;;;;;;5071551;28;20301;-74
2021/03/05 03:21:09;;;;;;;5.90;1.97;;;2.90;81.70;;;;;;5070481;28;20848;-74
2021/03/05 03:23:35;;;;;;;6.40;2.07;;;2.80;81.30;;;;;;5072186;28;20303;-74
2021/03/05 03:26:02;;;;;;;6.93;1.87;;;2.80;81.30;;;;;;5071336;28;20336;-74
2021/03/05 03:28:28;;;;;;;4.77;1.77;;;2.80;81.30;;;;;;5070891;28;20407;-74
2021/03/05 03:30:54;;;;;;;9.93;1.90;;;2.70;81.20;;;;;;5071600;28;20768;-74
2021/03/05 03:33:20;;;;;;;7.50;1.77;;;2.70;81.20;;;;;;5071173;28;20056;-74
2021/03/05 03:35:47;;;;;;;4.73;1.97;;;2.70;81.00;;;;;;5070443;28;20053;-74
2021/03/05 03:38:12;;;;;;;9.03;2.50;;;2.60;80.70;;;;;;5071261;28;20307;-74
2021/03/05 03:40:41;;;;;;;9.30;2.17;;;2.60;80.50;;;;;;5071436;28;20286;-74
2021/03/05 03:43:06;;;;;;;6.37;1.53;;;2.60;80.20;;;;;;5070866;28;20052;-74
2021/03/05 03:45:35;;;;;;;5.13;1.10;;;2.60;80.10;;;;;;5071549;28;20295;-74
2021/03/05 03:48:01;;;;;;;5.40;1.63;;;2.50;79.90;;;;;;5071318;28;20052;-74
2021/03/05 03:50:32;;;;;;;5.70;1.20;;;2.50;79.70;;;;;;5071001;28;20299;-74
2021/03/05 03:53:04;;;;;;;5.00;1.57;;;2.60;79.50;;;;;;5071484;28;20664;-74
2021/03/05 03:55:29;;;;;;;4.35;1.13;;;2.60;79.30;;;;;;5075350;28;20291;-74
2021/03/05 03:57:56;;;;;;;6.27;1.40;;;2.60;79.10;;;;;;5074576;28;20054;-74
2021/03/05 04:00:22;;;;;;;5.63;1.70;;;2.60;79.00;;;;;;5075057;28;20048;-74
2021/03/05 04:02:55;;;;;;;7.38;1.48;;;2.60;78.80;;;;;;5075007;28;20309;-74
2021/03/05 04:05:26;;;;;;;12.73;1.70;;;2.60;78.80;;;;;;5074305;28;20050;-74
2021/03/05 04:07:55;;;;;;;5.13;1.45;;;2.60;78.70;;;;;;5074861;28;20430;-74
2021/03/05 04:10:21;;;;;;;4.23;1.20;;;2.70;78.80;;;;;;5074255;28;20079;-74
2021/03/05 04:12:48;;;;;;;7.07;1.60;;;2.60;78.90;;;;;;5074771;28;20310;-74
2021/03/05 04:15:16;;;;;;;9.57;1.27;;;2.70;78.70;;;;;;5074884;28;20291;-74
2021/03/05 04:17:42;;;;;;;5.33;1.30;;;2.70;78.60;;;;;;5073995;28;20297;-74
2021/03/05 04:20:12;;;;;;;4.87;1.30;;;2.70;78.70;;;;;;5074761;28;20299;-74
2021/03/05 04:22:39;;;;;;;6.20;1.17;;;2.60;78.70;;;;;;5074627;28;20295;-74
2021/03/05 04:25:06;;;;;;;6.33;1.60;;;2.60;78.60;;;;;;5074025;28;20299;-74
2021/03/05 04:27:31;;;;;;;9.00;1.97;;;2.60;78.60;;;;;;5074932;28;20298;-74
2021/03/05 04:29:57;;;;;;;8.90;1.53;;;2.70;78.70;;;;;;5074483;28;20352;-74
2021/03/05 04:32:22;;;;;;;5.73;1.20;;;2.70;78.00;;;;;;5073491;28;20052;-74
2021/03/05 04:34:48;;;;;;;7.00;1.33;;;2.70;77.90;;;;;;5074128;28;20132;-74
2021/03/05 04:37:14;;;;;;;7.50;1.00;;;2.70;77.60;;;;;;5074305;28;20055;-74
2021/03/05 04:39:39;;;;;;;8.00;1.27;;;2.60;77.40;;;;;;5073768;28;20091;-74
2021/03/05 04:42:05;;;;;;;7.40;1.50;;;2.50;77.60;;;;;;5074384;28;20049;-74
2021/03/05 04:44:31;;;;;;;4.40;1.00;;;2.50;77.80;;;;;;5074562;28;20049;-74
2021/03/05 04:46:56;;;;;;;4.47;1.23;;;2.40;77.90;;;;;;5073463;28;20044;-74
2021/03/05 04:49:22;;;;;;;4.80;1.10;;;2.30;78.20;;;;;;5074150;28;20109;-74
2021/03/05 04:51:48;;;;;;;5.57;1.53;;;2.30;78.40;;;;;;5073869;28;20056;-74
2021/03/05 04:54:13;;;;;;;7.10;1.43;;;2.20;78.60;;;;;;5073507;28;20493;-74
2021/03/05 04:56:39;;;;;;;5.60;1.60;;;2.20;78.70;;;;;;5074131;28;20052;-74
2021/03/05 04:59:05;;;;;;;4.93;1.23;;;2.10;78.70;;;;;;5074009;28;20071;-74
2021/03/05 05:01:30;;;;;;;8.17;2.63;;;2.10;78.80;;;;;;5073308;28;20071;-74
2021/03/05 05:03:58;;;;;;;6.10;1.90;;;2.00;79.00;;;;;;5073747;28;20158;-74
2021/03/05 05:06:24;;;;;;;11.07;2.00;;;2.00;79.10;;;;;;5072190;28;20306;-74
2021/03/05 05:08:49;;;;;;;6.47;1.20;;;1.90;79.20;;;;;;5074073;28;20453;-74
2021/03/05 05:11:15;;;;;;;6.37;1.20;;;1.80;79.20;;;;;;5073812;28;20049;-75
2021/03/05 05:13:41;;;;;;;7.83;1.13;;;1.80;79.30;;;;;;5072865;28;20501;-74
2021/03/05 05:16:06;;;;;;;4.57;1.10;;;1.70;79.40;;;;;;5073619;28;20044;-73
2021/03/05 05:18:32;;;;;;;4.93;1.03;;;1.70;79.30;;;;;;5073907;28;20061;-74
2021/03/05 05:20:58;;;;;;;4.37;1.27;;;1.70;79.40;;;;;;5072817;28;20055;-74
2021/03/05 05:23:24;;;;;;;5.10;1.20;;;1.70;79.40;;;;;;5073705;28;20451;-74
2021/03/05 05:25:50;;;;;;;4.97;1.20;;;1.70;79.30;;;;;;5073436;28;20305;-73
2021/03/05 05:28:16;;;;;;;7.97;2.07;;;1.70;79.30;;;;;;5072738;28;20094;-74
2021/03/05 05:30:41;;;;;;;4.30;1.57;;;1.70;79.10;;;;;;5073402;28;20048;-73
2021/03/05 05:33:07;;;;;;;4.10;1.40;;;1.60;79.00;;;;;;5073210;28;20135;-74
2021/03/05 05:35:32;;;;;;;6.57;1.30;;;1.70;79.50;;;;;;5072518;28;20143;-74
2021/03/05 05:37:58;;;;;;;5.77;1.53;;;1.60;78.90;;;;;;5073271;28;20155;-74
2021/03/05 05:40:24;;;;;;;7.17;2.03;;;1.60;78.90;;;;;;5073259;28;20040;-74
2021/03/05 05:42:55;;;;;;;9.32;1.42;;;1.70;78.70;;;;;;5072432;28;20135;-74
2021/03/05 05:45:21;;;;;;;7.03;1.50;;;1.70;78.60;;;;;;5073114;28;20127;-74
2021/03/05 05:47:52;;;;;;;3.27;1.10;;;1.70;78.60;;;;;;5073013;28;20221;-74
2021/03/05 05:50:18;;;;;;;3.60;1.33;;;1.70;78.40;;;;;;5072273;28;20287;-74
2021/03/05 05:52:45;;;;;;;7.10;1.63;;;1.70;78.40;;;;;;5072988;28;20402;-75
2021/03/05 05:55:13;;;;;;;4.43;1.30;;;1.70;78.20;;;;;;5072954;28;20127;-74
2021/03/05 05:57:39;;;;;;;8.33;3.43;;;1.70;78.30;;;;;;5071827;28;20299;-74
2021/03/05 06:00:09;;;;;;;4.50;1.93;;;1.70;78.20;;;;;;5071585;28;20798;-74
2021/03/05 06:02:36;;;;;;;10.77;1.70;;;1.60;78.10;;;;;;5072079;28;20295;-73
2021/03/05 06:05:03;;;;;;;5.63;2.43;;;1.60;78.00;;;;;;5069414;28;20298;-73
2021/03/05 06:07:36;;;;;;;6.03;2.07;;;1.70;77.90;;;;;;5072828;28;20334;-73
2021/03/05 06:10:03;;;;;;;10.30;2.03;;;1.70;77.90;;;;;;5067744;28;20295;-73
2021/03/05 06:12:29;;;;;;;5.63;2.07;;;1.70;77.90;;;;;;5071765;28;20747;-74
2021/03/05 06:14:55;;;;;;;8.10;1.90;;;1.70;77.70;;;;;;5072472;28;20291;-74
2021/03/05 06:17:20;;;;;;;3.83;1.70;;;1.60;77.80;;;;;;5071307;28;20051;-74
2021/03/05 06:19:55;;;;;;;7.50;2.20;;;1.60;78.80;;;;;;5071933;28;20082;-75
2021/03/05 06:22:23;;;;;;;5.13;1.83;;;1.60;78.10;;;;;;5072118;28;20500;-74
2021/03/05 06:24:50;;;;;;;6.57;1.90;;;1.60;78.20;;;;;;5070822;28;20357;-74
2021/03/05 06:27:17;;;;;;;3.40;1.50;;;1.60;78.20;;;;;;5069833;28;20287;-74
2021/03/05 06:29:45;;;;;;;6.57;2.10;;;1.60;78.30;;;;;;5064250;28;20303;-74
2021/03/05 06:32:16;;;;;;;5.97;2.17;;;1.50;78.10;;;;;;5070724;28;20341;-74
2021/03/05 06:34:50;;;;;;;5.43;2.07;;;1.60;78.20;;;;;;5070982;28;20647;-74
2021/03/05 06:37:18;;;;;;;5.20;1.60;;;1.60;78.20;;;;;;5071447;28;20325;-74
2021/03/05 06:39:57;;;;;;;6.17;1.90;;;1.60;78.20;;;;;;5068960;28;20368;-74
2021/03/05 06:42:23;;;;;;;7.40;2.07;;;1.60;78.10;;;;;;5071605;28;20299;-74
2021/03/05 06:44:48;;;;;;;4.97;1.60;;;1.60;78.00;;;;;;5070749;28;20302;-74
2021/03/05 06:47:19;;;;;;;5.53;1.37;;;1.60;77.80;;;;;;5071423;28;20055;-74
2021/03/05 06:49:47;;;;;;;4.13;1.50;;;1.60;78.00;;;;;;5060522;28;20378;-73
2021/03/05 06:52:17;;;;;;;8.90;2.20;;;1.60;78.00;;;;;;5070468;28;20314;-74
2021/03/05 06:54:45;;;;;;;6.33;1.70;;;1.70;78.00;;;;;;5068511;28;20436;-73
2021/03/05 06:57:14;;;;;;;5.00;1.33;;;1.70;78.00;;;;;;5071112;28;20389;-73
2021/03/05 06:59:44;;;;;;;3.50;1.97;;;1.70;77.90;;;;;;5070302;28;20306;-74
2021/03/05 07:02:11;;;;;;;4.80;1.50;;;1.80;77.80;;;;;;5071530;28;20336;-74
2021/03/05 07:04:42;;;;;;;7.20;1.80;;;1.80;77.90;;;;;;5071537;28;20383;-74
2021/03/05 07:07:10;;;;;;;6.40;1.80;;;1.90;77.80;;;;;;5070162;28;20305;-74
2021/03/05 07:09:47;;;;;;;5.83;1.80;;;2.00;77.60;;;;;;5071377;28;20075;-74
2021/03/05 07:12:24;;;;;;;3.07;1.50;;;2.10;77.40;;;;;;5068596;28;20310;-74
2021/03/05 07:14:51;;;;;;;4.83;1.47;;;2.20;77.20;;;;;;5067933;28;20308;-74
2021/03/05 07:17:19;;;;;;;4.43;1.50;;;2.30;77.10;;;;;;5071303;28;20295;-72
2021/03/05 07:19:45;;;;;;;7.73;2.47;;;2.50;77.30;;;;;;5071237;28;20378;-74
2021/03/05 07:22:14;;;;;;;9.97;1.83;;;3.00;76.90;;;;;;5070689;28;20373;-74
2021/03/05 07:24:40;;;;;;;4.83;1.63;;;3.30;75.90;;;;;;5071235;28;20055;-74
2021/03/05 07:27:08;;;;;;;5.67;2.23;;;3.70;75.30;;;;;;5070355;28;20698;-73
2021/03/05 07:29:44;;;;;;;5.43;2.27;;;3.90;74.10;;;;;;5071043;28;20310;-73
2021/03/05 07:32:14;;;;;;;5.90;1.80;;;4.00;73.90;;;;;;5071027;28;20706;-73
2021/03/05 07:35:03;;;;;;;7.10;1.83;;;4.10;73.20;;;;;;5070450;28;20298;-73
2021/03/05 07:37:40;;;;;;;7.13;2.20;;;4.30;72.40;;;;;;5071398;28;20303;-73
2021/03/05 07:40:08;;;;;;;3.77;1.50;;;4.50;72.40;;;;;;5070422;28;20295;-73
2021/03/05 07:42:34;;;;;;;6.07;1.50;;;4.70;71.20;;;;;;5070134;28;20326;-73
2021/03/05 07:45:02;;;;;;;4.17;1.50;;;4.70;70.90;;;;;;5070325;28;20667;-73
2021/03/05 07:47:30;;;;;;;4.23;1.33;;;4.70;70.90;;;;;;5070672;28;20807;-73
2021/03/05 07:50:01;;;;;;;4.97;1.43;;;4.70;70.40;;;;;;5067811;28;20331;-73
2021/03/05 07:52:27;;;;;;;3.70;1.40;;;4.80;70.70;;;;;;5071122;28;20314;-74
2021/03/05 07:54:53;;;;;;;7.07;1.37;;;5.00;70.30;;;;;;5070773;28;20294;-72
2021/03/05 07:57:18;;;;;;;7.70;2.20;;;5.00;70.00;;;;;;5070466;28;20067;-74
2021/03/05 07:59:45;;;;;;;7.20;1.70;;;5.00;69.30;;;;;;5070953;28;20131;-74
2021/03/05 08:02:12;;;;;;;5.60;1.60;;;5.10;69.40;;;;;;5070255;28;20102;-74
2021/03/05 08:04:50;;;;;;;3.40;1.27;;;5.10;68.30;;;;;;5070810;28;20322;-74
2021/03/05 08:07:17;;;;;;;5.83;1.93;;;5.10;67.80;;;;;;5070830;28;20411;-73
2021/03/05 08:09:44;;;;;;;5.17;1.30;;;5.10;68.50;;;;;;5069954;28;20303;-74
2021/03/05 08:12:42;;;;;;;9.10;1.87;;;5.10;67.70;;;;;;5070842;28;20318;-73
2021/03/05 08:15:08;;;;;;;5.57;1.13;;;5.00;67.40;;;;;;5070879;28;20420;-73
2021/03/05 08:17:44;;;;;;;4.20;1.00;;;5.00;67.60;;;;;;5070286;28;20382;-73
2021/03/05 08:20:30;;;;;;;3.47;1.30;;;5.10;66.90;;;;;;5070655;28;20526;-74
2021/03/05 08:22:58;;;;;;;5.33;1.20;;;5.20;64.80;;;;;;5069843;28;20313;-74
2021/03/05 08:25:30;;;;;;;8.00;1.60;;;5.40;66.40;;;;;;5069962;28;20302;-72
2021/03/05 08:27:57;;;;;;;8.70;2.00;;;5.60;66.00;;;;;;5066099;28;20333;-72
2021/03/05 08:30:29;;;;;;;2.83;1.30;;;5.70;64.90;;;;;;5065744;28;20309;-74
2021/03/05 08:32:59;;;;;;;5.28;1.40;;;5.80;65.00;;;;;;5065522;28;20314;-72
2021/03/05 08:35:30;;;;;;;5.93;2.00;;;6.00;64.20;;;;;;5066837;28;20075;-73
2021/03/05 08:38:07;;;;;;;10.87;7.37;;;6.20;64.20;;;;;;5066342;28;20360;-72
2021/03/05 08:40:37;;;;;;;;;;;6.80;63.40;;;;;;5069586;28;20298;-74
2021/03/05 08:43:20;;;;;;;2.83;1.50;;;7.00;58.40;;;;;;5070178;28;20060;-73
2021/03/05 08:46:08;;;;;;;3.57;0.80;;;7.40;61.00;;;;;;5068100;28;20411;-73
2021/03/05 08:48:44;;;;;;;3.70;0.70;;;7.60;60.70;;;;;;5070529;28;20708;-72
2021/03/05 08:51:19;;;;;;;4.43;0.90;;;8.20;60.10;;;;;;5089102;28;20313;-72
2021/03/05 08:53:55;;;;;;;3.77;1.00;;;8.60;58.90;;;;;;5090779;28;20306;-73
2021/03/05 08:56:29;;;;;;;4.00;0.80;;;8.80;56.40;;;;;;5090777;28;20327;-73
2021/03/05 08:58:57;;;;;;;2.67;0.63;;;9.10;55.30;;;;;;5089833;28;20849;-73
2021/03/05 09:01:39;;;;;;;5.30;0.97;;;9.30;56.20;;;;;;5090371;28;20358;-73
2021/03/05 09:04:13;;;;;;;6.40;1.20;;;9.50;54.10;;;;;;5091092;28;20299;-73
2021/03/05 09:06:54;;;;;;;6.57;1.10;;;9.50;54.10;;;;;;5090511;28;20828;-73
2021/03/05 09:09:23;;;;;;;3.97;0.63;;;9.20;52.00;;;;;;5090891;28;20388;-73
2021/03/05 09:12:06;;;;;;;4.23;0.73;;;8.80;54.10;;;;;;5090177;28;20313;-73
2021/03/05 09:14:32;;;;;;;3.27;0.77;;;8.20;52.50;;;;;;5090008;28;20386;-72
2021/03/05 09:17:04;;;;;;;4.77;1.07;;;7.80;55.80;;;;;;5092473;28;20290;-73
2021/03/05 09:19:46;;;;;;;5.05;0.55;;;7.90;55.40;;;;;;5093539;28;20305;-73
2021/03/05 09:22:13;;;;;;;;;;;7.70;55.20;;;;;;5094216;28;20048;-73
2021/03/05 09:24:59;;;;;;;2.63;0.50;;;7.50;54.30;;;;;;5093712;28;19920;-73
2021/03/05 09:27:33;;;;;;;4.70;0.63;;;7.30;55.60;;;;;;5093104;28;20294;-73
2021/03/05 09:30:11;;;;;;;2.33;0.90;;;6.90;55.70;;;;;;5093665;28;20351;-73
2021/03/05 09:32:53;;;;;;;3.93;0.60;;;6.50;55.60;;;;;;5093629;28;20310;-73
2021/03/05 09:35:29;;;;;;;5.28;0.70;;;6.20;54.10;;;;;;5092303;28;20314;-73
2021/03/05 09:37:56;;;;;;;4.17;0.77;;;6.30;56.90;;;;;;5093179;28;20481;-72
2021/03/05 09:40:23;;;;;;;2.27;0.70;;;6.50;56.30;;;;;;5093348;28;20838;-72
2021/03/05 09:42:53;;;;;;;1.47;0.60;;;6.70;55.70;;;;;;5092437;28;20306;-72
2021/03/05 09:45:42;;;;;;;3.57;0.83;;;6.70;55.40;;;;;;5081379;28;20295;-71
2021/03/05 09:48:30;;;;;;;2.67;0.77;;;6.50;54.40;;;;;;5071426;28;20787;-72
2021/03/05 09:50:58;;;;;;;3.73;1.00;;;6.30;55.40;;;;;;5070297;28;20306;-72
2021/03/05 09:53:26;;;;;;;4.77;0.77;;;6.20;56.40;;;;;;5072307;28;20418;-71
2021/03/05 09:55:53;;;;;;;3.40;0.90;;;6.20;56.30;;;;;;5071753;28;20322;-72
2021/03/05 09:58:19;;;;;;;2.13;0.63;;;6.20;56.30;;;;;;5072910;28;20382;-72
2021/03/05 10:00:46;;;;;;;1.00;0.50;;;6.10;55.70;;;;;;5072430;28;20655;-72
2021/03/05 10:03:13;;;;;;;3.43;0.70;;;6.10;55.10;;;;;;5071542;28;20101;-72
2021/03/05 10:05:42;;;;;;;3.17;0.77;;;6.00;55.70;;;;;;5072516;28;20369;-72
2021/03/05 10:08:16;;;;;;;3.13;0.93;;;6.00;56.10;;;;;;5072015;28;20330;-72
2021/03/05 10:11:07;;;;;;;2.38;0.65;;;6.00;55.90;;;;;;5071847;28;20493;-72
2021/03/05 10:13:39;;;;;;;4.18;0.68;;;5.90;54.20;;;;;;5066159;28;20052;-70
2021/03/05 10:16:14;;;;;;;2.00;0.60;;;5.90;56.00;;;;;;5065781;28;20559;-69
2021/03/05 10:18:41;;;;;;;2.07;0.60;;;5.90;54.30;;;;;;5066747;28;20538;-70
2021/03/05 10:21:09;;;;;;;4.57;0.80;;;5.90;55.80;;;;;;5077048;28;20314;-70
2021/03/05 10:23:36;;;;;;;2.33;0.70;;;6.10;56.10;;;;;;5083076;28;20317;-70
2021/03/05 10:26:02;;;;;;;1.47;0.63;;;6.10;55.70;;;;;;5076891;28;20303;-72
2021/03/05 10:28:28;;;;;;;2.57;0.60;;;6.20;55.50;;;;;;5069229;28;20314;-76
2021/03/05 10:30:54;;;;;;;2.63;0.90;;;6.30;55.00;;;;;;5068229;28;20060;-73
2021/03/05 10:33:39;;;;;;;2.33;0.70;;;6.30;55.50;;;;;;5068635;28;20718;-75
2021/03/05 10:36:06;;;;;;;2.13;0.80;;;6.30;55.20;;;;;;5068387;28;20056;-74
2021/03/05 10:38:33;;;;;;;5.60;0.80;;;6.30;55.50;;;;;;5068609;28;20845;-74
2021/03/05 10:40:59;;;;;;;4.67;1.00;;;6.40;55.70;;;;;;5069082;28;20307;-74
2021/03/05 10:43:24;;;;;;;3.87;0.73;;;6.50;55.20;;;;;;5068940;28;20310;-74
2021/03/05 10:45:50;;;;;;;2.60;0.73;;;6.60;54.80;;;;;;5068025;28;20052;-72
2021/03/05 10:48:16;;;;;;;3.83;1.17;;;6.70;54.80;;;;;;5068961;28;20144;-71
2021/03/05 10:50:41;;;;;;;1.80;0.80;;;6.80;54.70;;;;;;5068521;28;20049;-72
2021/03/05 10:53:07;;;;;;;1.67;0.77;;;6.80;54.30;;;;;;5067577;28;20489;-73
2021/03/05 10:55:36;;;;;;;5.07;0.90;;;6.90;55.10;;;;;;5068405;28;20140;-72
2021/03/05 10:58:02;;;;;;;4.43;0.80;;;6.90;54.40;;;;;;5067777;28;20390;-73
2021/03/05 11:00:29;;;;;;;2.70;0.77;;;6.80;54.00;;;;;;5068574;28;20055;-75
2021/03/05 11:02:55;;;;;;;3.63;0.90;;;6.80;54.40;;;;;;5067437;28;20335;-71
2021/03/05 11:05:20;;;;;;;2.00;0.73;;;6.80;54.80;;;;;;5068000;28;20322;-74
2021/03/05 11:07:46;;;;;;;3.23;0.70;;;6.90;54.10;;;;;;5068174;28;20075;-74
2021/03/05 11:10:12;;;;;;;2.60;0.70;;;6.90;53.40;;;;;;5068085;28;20481;-78
2021/03/05 11:12:38;;;;;;;7.30;1.00;;;6.90;53.00;;;;;;5067766;28;20048;-72
2021/03/05 11:15:10;;;;;;;2.50;0.80;;;6.90;53.70;;;;;;5068405;28;20291;-74
2021/03/05 11:17:35;;;;;;;2.47;0.57;;;7.00;53.50;;;;;;5068430;28;20415;-76
2021/03/05 11:20:04;;;;;;;2.67;0.73;;;7.00;52.60;;;;;;5067286;28;20751;-73
2021/03/05 11:22:32;;;;;;;5.30;0.90;;;7.20;53.20;;;;;;5068224;28;20051;-74
2021/03/05 11:24:58;;;;;;;3.73;0.80;;;7.30;53.50;;;;;;5068402;28;20303;-77
2021/03/05 11:27:23;;;;;;;3.30;0.60;;;7.50;53.20;;;;;;5067368;28;20155;-75
2021/03/05 11:29:49;;;;;;;8.20;0.90;;;7.60;52.30;;;;;;5068289;28;20059;-74
2021/03/05 11:32:15;;;;;;;6.17;0.83;;;7.60;51.80;;;;;;5068140;28;20056;-73
2021/03/05 11:34:41;;;;;;;3.53;0.90;;;7.50;52.40;;;;;;5067191;28;20302;-73
2021/03/05 11:37:07;;;;;;;2.17;0.67;;;7.30;52.70;;;;;;5067735;28;20110;-73
2021/03/05 11:39:33;;;;;;;4.10;0.73;;;7.10;53.10;;;;;;5068256;28;20052;-77
2021/03/05 11:41:58;;;;;;;5.13;1.33;;;7.00;53.40;;;;;;5067750;28;20139;-74
2021/03/05 11:44:24;;;;;;;6.00;1.33;;;7.00;53.50;;;;;;5067961;28;20053;-73
2021/03/05 11:46:50;;;;;;;4.30;0.87;;;7.20;53.60;;;;;;5070360;28;20587;-72
2021/03/05 11:49:16;;;;;;;4.87;1.00;;;7.50;53.30;;;;;;5068866;28;20048;-70
2021/03/05 11:51:42;;;;;;;1.10;0.60;;;7.60;53.10;;;;;;5078329;28;20139;-71
2021/03/05 11:54:07;;;;;;;3.10;0.87;;;7.60;52.80;;;;;;5072503;28;20106;-72
2021/03/05 11:56:33;;;;;;;4.47;0.80;;;7.60;52.10;;;;;;5067289;28;20127;-72
2021/03/05 11:59:01;;;;;;;3.83;0.83;;;7.60;51.80;;;;;;5068193;28;20563;-71
2021/03/05 12:01:28;;;;;;;6.00;0.90;;;7.60;51.60;;;;;;5067203;28;20044;-71
2021/03/05 12:03:54;;;;;;;3.67;0.73;;;7.60;50.80;;;;;;5067658;28;20303;-71
2021/03/05 12:06:22;;;;;;;8.43;1.30;;;7.50;49.60;;;;;;5068037;28;20298;-72
2021/03/05 12:08:48;;;;;;;2.57;0.67;;;7.40;50.90;;;;;;5067380;28;20048;-72
2021/03/05 12:11:14;;;;;;;5.77;1.07;;;7.50;50.40;;;;;;5067813;28;20302;-72
2021/03/05 12:13:41;;;;;;;3.00;0.80;;;7.60;50.10;;;;;;5067654;28;20386;-72
2021/03/05 12:16:07;;;;;;;2.73;0.87;;;7.60;50.10;;;;;;5070581;28;20295;-72
2021/03/05 12:18:32;;;;;;;3.57;0.90;;;7.60;50.10;;;;;;5072437;28;20177;-71
2021/03/05 12:20:58;;;;;;;4.73;1.03;;;7.50;50.40;;;;;;5074597;28;20472;-71
2021/03/05 12:23:28;;;;;;;4.87;0.80;;;7.50;50.60;;;;;;5074040;28;20402;-72
2021/03/05 12:26:13;;;;;;;2.60;0.63;;;7.50;51.30;;;;;;5073857;28;20283;-69
2021/03/05 12:28:59;;;;;;;6.03;0.90;;;7.50;51.70;;;;;;5073787;28;20293;-72
2021/03/05 12:31:44;;;;;;;2.77;0.70;;;7.50;51.70;;;;;;5072837;28;20314;-72
2021/03/05 12:34:31;;;;;;;3.20;0.80;;;7.40;51.40;;;;;;5073486;28;20275;-71
2021/03/05 12:37:17;;;;;;;5.73;1.00;;;7.40;52.60;;;;;;5072744;28;20283;-69
2021/03/05 12:40:03;;;;;;;3.13;1.17;;;7.60;52.60;;;;;;5072736;28;20793;-70
2021/03/05 12:42:29;;;;;;;4.43;1.07;;;7.80;52.80;;;;;;5074316;28;20306;-70
2021/03/05 12:44:54;;;;;;;4.43;1.10;;;7.90;52.10;;;;;;5073622;28;20659;-70
2021/03/05 12:47:20;;;;;;;5.00;1.10;;;7.90;51.80;;;;;;5074325;28;20048;-69
2021/03/05 12:49:46;;;;;;;4.87;1.17;;;7.90;52.00;;;;;;5074201;28;20102;-72
2021/03/05 12:52:11;;;;;;;5.80;1.40;;;7.70;52.10;;;;;;5073316;28;20048;-72
2021/03/05 12:54:37;;;;;;;5.67;0.93;;;7.60;52.70;;;;;;5074281;28;20040;-72
2021/03/05 12:57:03;;;;;;;9.03;3.90;;;7.40;52.90;;;;;;5073660;28;20052;-72
2021/03/05 12:59:28;;;;;;;4.03;3.17;;;7.20;53.70;;;;;;5073473;28;20452;-69
2021/03/05 13:01:56;;;;;;;4.90;2.27;;;7.20;54.20;;;;;;5073879;28;20542;-70
2021/03/05 13:04:22;;;;;;;5.37;1.30;;;7.10;54.10;;;;;;5073873;28;20048;-70